Terminal Aerodrome Forecast
Issued by NWS

Home | Current Version | Previous Version | Text Only | Print | Product List | Glossary On
Versions: 1 2 3 4 5 6 7 8 9 10 11 12 13 14
000
FTAK31 PAJN 011100
TAFAKT
TAF
PAKT 011129Z 0112/0212 31007KT P6SM SKC
     FM011800 33012KT P6SM SKC
     FM020500 31004KT P6SM SKC
      AMD LTD TO CLD VIS AND WIND TIL 011500=

USA.gov is the U.S. government's official web portal to all federal, state and local government web resources and services.